sensor_id;sensor_type;location;lat;lon;timestamp;P1;durP1;ratioP1;P2;durP2;ratioP2
7669;SDS011;3877;42.562;27.636;2023-04-05T00:01:25;1.83;;;1.60;;
7669;SDS011;3877;42.562;27.636;2023-04-05T00:03:53;3.03;;;2.00;;
7669;SDS011;3877;42.562;27.636;2023-04-05T00:06:20;1.97;;;1.80;;
7669;SDS011;3877;42.562;27.636;2023-04-05T00:08:50;2.07;;;1.90;;
7669;SDS011;3877;42.562;27.636;2023-04-05T00:11:19;2.00;;;1.80;;
7669;SDS011;3877;42.562;27.636;2023-04-05T00:13:46;1.80;;;1.70;;
7669;SDS011;3877;42.562;27.636;2023-04-05T00:16:15;1.77;;;1.67;;
7669;SDS011;3877;42.562;27.636;2023-04-05T00:18:42;1.70;;;1.17;;
7669;SDS011;3877;42.562;27.636;2023-04-05T00:21:14;1.60;;;1.17;;
7669;SDS011;3877;42.562;27.636;2023-04-05T00:23:41;0.90;;;0.90;;
7669;SDS011;3877;42.562;27.636;2023-04-05T00:26:09;2.80;;;1.00;;
7669;SDS011;3877;42.562;27.636;2023-04-05T00:28:36;1.80;;;1.03;;
7669;SDS011;3877;42.562;27.636;2023-04-05T00:31:03;1.13;;;1.00;;
7669;SDS011;3877;42.562;27.636;2023-04-05T00:33:32;1.70;;;1.60;;
7669;SDS011;3877;42.562;27.636;2023-04-05T00:36:07;1.60;;;1.50;;
7669;SDS011;3877;42.562;27.636;2023-04-05T00:38:34;1.70;;;1.60;;
7669;SDS011;3877;42.562;27.636;2023-04-05T00:41:00;1.60;;;1.50;;
7669;SDS011;3877;42.562;27.636;2023-04-05T00:43:30;1.67;;;1.50;;
7669;SDS011;3877;42.562;27.636;2023-04-05T00:45:57;2.03;;;1.60;;
7669;SDS011;3877;42.562;27.636;2023-04-05T00:48:24;1.60;;;1.50;;
7669;SDS011;3877;42.562;27.636;2023-04-05T00:50:52;1.40;;;1.30;;
7669;SDS011;3877;42.562;27.636;2023-04-05T00:53:19;1.53;;;1.43;;
7669;SDS011;3877;42.562;27.636;2023-04-05T00:55:46;1.57;;;1.47;;
7669;SDS011;3877;42.562;27.636;2023-04-05T00:58:14;1.20;;;1.20;;
7669;SDS011;3877;42.562;27.636;2023-04-05T01:00:43;0.80;;;0.80;;
7669;SDS011;3877;42.562;27.636;2023-04-05T01:03:13;0.60;;;0.60;;
7669;SDS011;3877;42.562;27.636;2023-04-05T01:05:43;0.60;;;0.60;;
7669;SDS011;3877;42.562;27.636;2023-04-05T01:08:15;0.60;;;0.60;;
7669;SDS011;3877;42.562;27.636;2023-04-05T01:10:45;1.20;;;0.70;;
7669;SDS011;3877;42.562;27.636;2023-04-05T01:13:14;0.80;;;0.80;;
7669;SDS011;3877;42.562;27.636;2023-04-05T01:15:42;0.67;;;0.60;;
7669;SDS011;3877;42.562;27.636;2023-04-05T01:18:08;1.97;;;1.50;;
7669;SDS011;3877;42.562;27.636;2023-04-05T01:20:36;1.30;;;1.30;;
7669;SDS011;3877;42.562;27.636;2023-04-05T01:28:46;1.40;;;1.30;;
7669;SDS011;3877;42.562;27.636;2023-04-05T01:31:19;1.30;;;1.30;;
7669;SDS011;3877;42.562;27.636;2023-04-05T01:33:49;1.20;;;1.20;;
7669;SDS011;3877;42.562;27.636;2023-04-05T01:36:19;1.50;;;1.40;;
7669;SDS011;3877;42.562;27.636;2023-04-05T01:38:51;1.40;;;1.30;;
7669;SDS011;3877;42.562;27.636;2023-04-05T01:41:20;1.10;;;1.10;;
7669;SDS011;3877;42.562;27.636;2023-04-05T01:43:47;0.70;;;0.70;;
7669;SDS011;3877;42.562;27.636;2023-04-05T01:46:13;1.63;;;1.00;;
7669;SDS011;3877;42.562;27.636;2023-04-05T01:48:42;3.57;;;1.50;;
7669;SDS011;3877;42.562;27.636;2023-04-05T01:51:08;0.60;;;0.60;;
7669;SDS011;3877;42.562;27.636;2023-04-05T01:53:35;0.73;;;0.70;;
7669;SDS011;3877;42.562;27.636;2023-04-05T01:56:02;0.90;;;0.80;;
7669;SDS011;3877;42.562;27.636;2023-04-05T01:58:29;1.50;;;1.40;;
7669;SDS011;3877;42.562;27.636;2023-04-05T02:00:56;1.57;;;1.47;;
7669;SDS011;3877;42.562;27.636;2023-04-05T02:03:23;1.30;;;1.30;;
7669;SDS011;3877;42.562;27.636;2023-04-05T02:05:51;1.20;;;1.20;;
7669;SDS011;3877;42.562;27.636;2023-04-05T02:08:18;6.20;;;1.50;;
7669;SDS011;3877;42.562;27.636;2023-04-05T02:10:45;3.33;;;1.30;;
7669;SDS011;3877;42.562;27.636;2023-04-05T02:13:12;1.40;;;1.33;;
7669;SDS011;3877;42.562;27.636;2023-04-05T02:15:39;1.20;;;1.20;;
7669;SDS011;3877;42.562;27.636;2023-04-05T02:18:06;1.50;;;1.40;;
7669;SDS011;3877;42.562;27.636;2023-04-05T02:20:33;1.50;;;1.40;;
7669;SDS011;3877;42.562;27.636;2023-04-05T02:23:02;0.70;;;0.70;;
7669;SDS011;3877;42.562;27.636;2023-04-05T02:25:28;0.60;;;0.60;;
7669;SDS011;3877;42.562;27.636;2023-04-05T02:27:55;0.60;;;0.60;;
7669;SDS011;3877;42.562;27.636;2023-04-05T02:30:22;1.50;;;0.70;;
7669;SDS011;3877;42.562;27.636;2023-04-05T02:32:49;0.70;;;0.70;;
7669;SDS011;3877;42.562;27.636;2023-04-05T02:35:16;1.17;;;0.70;;
7669;SDS011;3877;42.562;27.636;2023-04-05T02:37:43;1.87;;;0.73;;
7669;SDS011;3877;42.562;27.636;2023-04-05T02:40:12;1.53;;;1.43;;
7669;SDS011;3877;42.562;27.636;2023-04-05T02:42:39;1.50;;;1.40;;
7669;SDS011;3877;42.562;27.636;2023-04-05T02:45:07;1.50;;;1.40;;
7669;SDS011;3877;42.562;27.636;2023-04-05T02:47:34;1.83;;;1.60;;
7669;SDS011;3877;42.562;27.636;2023-04-05T02:50:01;1.50;;;1.40;;
7669;SDS011;3877;42.562;27.636;2023-04-05T02:52:28;1.40;;;1.40;;
7669;SDS011;3877;42.562;27.636;2023-04-05T02:54:56;1.50;;;1.40;;
7669;SDS011;3877;42.562;27.636;2023-04-05T02:57:24;1.30;;;1.30;;
7669;SDS011;3877;42.562;27.636;2023-04-05T02:59:51;1.50;;;1.40;;
7669;SDS011;3877;42.562;27.636;2023-04-05T03:02:18;1.40;;;1.30;;
7669;SDS011;3877;42.562;27.636;2023-04-05T03:04:45;0.60;;;0.60;;
7669;SDS011;3877;42.562;27.636;2023-04-05T03:07:12;0.60;;;0.60;;
7669;SDS011;3877;42.562;27.636;2023-04-05T03:09:43;0.83;;;0.83;;
7669;SDS011;3877;42.562;27.636;2023-04-05T03:12:11;0.73;;;0.73;;
7669;SDS011;3877;42.562;27.636;2023-04-05T03:14:39;0.60;;;0.60;;
7669;SDS011;3877;42.562;27.636;2023-04-05T03:17:06;0.60;;;0.60;;
7669;SDS011;3877;42.562;27.636;2023-04-05T03:19:33;1.20;;;1.20;;
7669;SDS011;3877;42.562;27.636;2023-04-05T03:22:00;1.40;;;1.30;;
7669;SDS011;3877;42.562;27.636;2023-04-05T03:24:27;1.50;;;1.40;;
7669;SDS011;3877;42.562;27.636;2023-04-05T03:26:55;7.57;;;1.43;;
7669;SDS011;3877;42.562;27.636;2023-04-05T03:29:24;2.23;;;1.30;;
7669;SDS011;3877;42.562;27.636;2023-04-05T03:31:52;1.10;;;1.10;;
7669;SDS011;3877;42.562;27.636;2023-04-05T03:34:19;1.80;;;1.10;;
7669;SDS011;3877;42.562;27.636;2023-04-05T03:36:53;1.00;;;1.00;;
7669;SDS011;3877;42.562;27.636;2023-04-05T03:39:20;1.77;;;1.20;;
7669;SDS011;3877;42.562;27.636;2023-04-05T03:41:47;1.10;;;1.10;;
7669;SDS011;3877;42.562;27.636;2023-04-05T03:44:13;1.10;;;1.10;;
7669;SDS011;3877;42.562;27.636;2023-04-05T03:46:40;1.07;;;1.07;;
7669;SDS011;3877;42.562;27.636;2023-04-05T03:49:09;1.70;;;0.50;;
7669;SDS011;3877;42.562;27.636;2023-04-05T03:51:36;0.43;;;0.43;;
7669;SDS011;3877;42.562;27.636;2023-04-05T03:54:03;0.57;;;0.57;;
7669;SDS011;3877;42.562;27.636;2023-04-05T03:56:31;0.50;;;0.50;;
7669;SDS011;3877;42.562;27.636;2023-04-05T03:58:58;0.50;;;0.50;;
7669;SDS011;3877;42.562;27.636;2023-04-05T04:01:25;1.23;;;0.70;;
7669;SDS011;3877;42.562;27.636;2023-04-05T04:03:51;3.80;;;0.53;;
7669;SDS011;3877;42.562;27.636;2023-04-05T04:06:20;1.20;;;1.20;;
7669;SDS011;3877;42.562;27.636;2023-04-05T04:08:47;1.13;;;1.10;;
7669;SDS011;3877;42.562;27.636;2023-04-05T04:11:14;1.23;;;1.20;;
7669;SDS011;3877;42.562;27.636;2023-04-05T04:13:41;1.10;;;1.10;;
7669;SDS011;3877;42.562;27.636;2023-04-05T04:16:08;1.20;;;1.10;;
7669;SDS011;3877;42.562;27.636;2023-04-05T04:18:35;1.23;;;1.20;;
7669;SDS011;3877;42.562;27.636;2023-04-05T04:21:02;1.17;;;1.17;;
7669;SDS011;3877;42.562;27.636;2023-04-05T04:23:32;1.43;;;1.33;;
7669;SDS011;3877;42.562;27.636;2023-04-05T04:26:03;1.10;;;1.10;;
7669;SDS011;3877;42.562;27.636;2023-04-05T04:28:30;0.93;;;0.93;;
7669;SDS011;3877;42.562;27.636;2023-04-05T04:30:58;0.50;;;0.50;;
7669;SDS011;3877;42.562;27.636;2023-04-05T04:33:29;1.07;;;0.50;;
7669;SDS011;3877;42.562;27.636;2023-04-05T04:35:55;0.40;;;0.40;;
7669;SDS011;3877;42.562;27.636;2023-04-05T04:38:22;2.10;;;0.80;;
7669;SDS011;3877;42.562;27.636;2023-04-05T04:40:51;0.60;;;0.60;;
7669;SDS011;3877;42.562;27.636;2023-04-05T04:43:19;1.13;;;0.80;;
7669;SDS011;3877;42.562;27.636;2023-04-05T04:45:51;0.90;;;0.90;;
7669;SDS011;3877;42.562;27.636;2023-04-05T04:48:19;1.73;;;1.63;;
7669;SDS011;3877;42.562;27.636;2023-04-05T04:50:46;1.00;;;1.00;;
7669;SDS011;3877;42.562;27.636;2023-04-05T04:53:14;1.30;;;1.20;;
7669;SDS011;3877;42.562;27.636;2023-04-05T04:55:42;1.10;;;1.10;;
7669;SDS011;3877;42.562;27.636;2023-04-05T04:58:10;2.00;;;1.17;;
7669;SDS011;3877;42.562;27.636;2023-04-05T05:00:38;2.27;;;2.07;;
7669;SDS011;3877;42.562;27.636;2023-04-05T05:03:05;1.10;;;1.10;;
7669;SDS011;3877;42.562;27.636;2023-04-05T05:05:32;1.03;;;1.03;;
7669;SDS011;3877;42.562;27.636;2023-04-05T05:07:59;1.40;;;1.30;;
7669;SDS011;3877;42.562;27.636;2023-04-05T05:10:26;0.90;;;0.90;;
7669;SDS011;3877;42.562;27.636;2023-04-05T05:12:53;1.20;;;1.10;;
7669;SDS011;3877;42.562;27.636;2023-04-05T05:15:22;1.77;;;1.10;;
7669;SDS011;3877;42.562;27.636;2023-04-05T05:17:48;1.00;;;1.00;;
7669;SDS011;3877;42.562;27.636;2023-04-05T05:20:17;1.30;;;1.20;;
7669;SDS011;3877;42.562;27.636;2023-04-05T05:22:44;1.40;;;1.20;;
7669;SDS011;3877;42.562;27.636;2023-04-05T05:25:11;2.30;;;1.60;;
7669;SDS011;3877;42.562;27.636;2023-04-05T05:27:38;2.53;;;1.50;;
7669;SDS011;3877;42.562;27.636;2023-04-05T05:30:05;1.20;;;1.10;;
7669;SDS011;3877;42.562;27.636;2023-04-05T05:32:34;1.10;;;1.10;;
7669;SDS011;3877;42.562;27.636;2023-04-05T05:35:00;1.70;;;1.60;;
7669;SDS011;3877;42.562;27.636;2023-04-05T05:37:31;2.07;;;1.87;;
7669;SDS011;3877;42.562;27.636;2023-04-05T05:39:58;1.60;;;1.50;;
7669;SDS011;3877;42.562;27.636;2023-04-05T05:42:25;2.13;;;1.80;;
7669;SDS011;3877;42.562;27.636;2023-04-05T05:44:51;3.10;;;2.27;;
7669;SDS011;3877;42.562;27.636;2023-04-05T05:47:18;1.50;;;1.40;;
7669;SDS011;3877;42.562;27.636;2023-04-05T05:49:47;1.40;;;1.30;;
7669;SDS011;3877;42.562;27.636;2023-04-05T05:52:14;1.97;;;1.60;;
7669;SDS011;3877;42.562;27.636;2023-04-05T05:54:41;1.27;;;1.17;;
7669;SDS011;3877;42.562;27.636;2023-04-05T05:57:08;2.97;;;2.50;;
7669;SDS011;3877;42.562;27.636;2023-04-05T05:59:35;3.27;;;2.00;;
7669;SDS011;3877;42.562;27.636;2023-04-05T06:02:01;1.50;;;1.20;;
7669;SDS011;3877;42.562;27.636;2023-04-05T06:04:28;2.87;;;1.60;;
7669;SDS011;3877;42.562;27.636;2023-04-05T06:06:57;4.30;;;3.30;;
7669;SDS011;3877;42.562;27.636;2023-04-05T06:09:24;6.10;;;3.23;;
7669;SDS011;3877;42.562;27.636;2023-04-05T06:11:50;3.47;;;2.93;;
7669;SDS011;3877;42.562;27.636;2023-04-05T06:14:17;2.93;;;2.17;;
7669;SDS011;3877;42.562;27.636;2023-04-05T06:16:44;3.33;;;2.80;;
7669;SDS011;3877;42.562;27.636;2023-04-05T06:19:11;2.63;;;1.83;;
7669;SDS011;3877;42.562;27.636;2023-04-05T06:21:38;2.60;;;2.40;;
7669;SDS011;3877;42.562;27.636;2023-04-05T06:24:06;2.17;;;1.60;;
7669;SDS011;3877;42.562;27.636;2023-04-05T06:26:33;4.47;;;4.07;;
7669;SDS011;3877;42.562;27.636;2023-04-05T06:29:00;5.40;;;3.73;;
7669;SDS011;3877;42.562;27.636;2023-04-05T06:31:32;2.60;;;1.80;;
7669;SDS011;3877;42.562;27.636;2023-04-05T06:33:59;1.40;;;1.30;;
7669;SDS011;3877;42.562;27.636;2023-04-05T06:36:28;1.40;;;1.13;;
7669;SDS011;3877;42.562;27.636;2023-04-05T06:38:55;2.60;;;2.40;;
7669;SDS011;3877;42.562;27.636;2023-04-05T06:41:24;2.17;;;1.60;;
7669;SDS011;3877;42.562;27.636;2023-04-05T06:43:51;1.70;;;1.60;;
7669;SDS011;3877;42.562;27.636;2023-04-05T06:46:18;1.20;;;1.10;;
7669;SDS011;3877;42.562;27.636;2023-04-05T06:48:45;1.20;;;1.10;;
7669;SDS011;3877;42.562;27.636;2023-04-05T06:51:12;1.67;;;1.30;;
7669;SDS011;3877;42.562;27.636;2023-04-05T06:53:39;2.03;;;1.70;;
7669;SDS011;3877;42.562;27.636;2023-04-05T06:56:06;1.80;;;1.50;;
7669;SDS011;3877;42.562;27.636;2023-04-05T06:58:34;1.40;;;1.30;;
7669;SDS011;3877;42.562;27.636;2023-04-05T07:01:01;1.10;;;1.00;;
7669;SDS011;3877;42.562;27.636;2023-04-05T07:03:28;0.90;;;0.90;;
7669;SDS011;3877;42.562;27.636;2023-04-05T07:05:56;1.70;;;1.50;;
7669;SDS011;3877;42.562;27.636;2023-04-05T07:08:23;1.37;;;1.00;;
7669;SDS011;3877;42.562;27.636;2023-04-05T07:10:51;1.60;;;1.30;;
7669;SDS011;3877;42.562;27.636;2023-04-05T07:13:18;2.00;;;1.30;;
7669;SDS011;3877;42.562;27.636;2023-04-05T07:15:49;0.77;;;0.77;;
7669;SDS011;3877;42.562;27.636;2023-04-05T07:18:16;1.30;;;1.10;;
7669;SDS011;3877;42.562;27.636;2023-04-05T07:20:45;1.40;;;1.13;;
7669;SDS011;3877;42.562;27.636;2023-04-05T07:23:12;0.80;;;0.80;;
7669;SDS011;3877;42.562;27.636;2023-04-05T07:25:39;0.67;;;0.67;;
7669;SDS011;3877;42.562;27.636;2023-04-05T07:28:06;0.70;;;0.70;;
7669;SDS011;3877;42.562;27.636;2023-04-05T07:30:33;0.63;;;0.63;;
7669;SDS011;3877;42.562;27.636;2023-04-05T07:33:02;0.80;;;0.80;;
7669;SDS011;3877;42.562;27.636;2023-04-05T07:35:29;0.97;;;0.77;;
7669;SDS011;3877;42.562;27.636;2023-04-05T07:37:56;0.80;;;0.80;;
7669;SDS011;3877;42.562;27.636;2023-04-05T07:40:23;1.53;;;0.93;;
7669;SDS011;3877;42.562;27.636;2023-04-05T07:42:50;0.90;;;0.90;;
7669;SDS011;3877;42.562;27.636;2023-04-05T07:45:16;1.50;;;1.30;;
7669;SDS011;3877;42.562;27.636;2023-04-05T07:47:43;1.20;;;1.10;;
7669;SDS011;3877;42.562;27.636;2023-04-05T07:50:11;1.30;;;1.20;;
7669;SDS011;3877;42.562;27.636;2023-04-05T07:52:39;1.40;;;1.17;;
7669;SDS011;3877;42.562;27.636;2023-04-05T07:55:06;2.10;;;1.70;;
7669;SDS011;3877;42.562;27.636;2023-04-05T07:57:33;2.13;;;1.20;;
7669;SDS011;3877;42.562;27.636;2023-04-05T08:00:00;0.87;;;0.87;;
7669;SDS011;3877;42.562;27.636;2023-04-05T08:02:29;0.90;;;0.90;;
7669;SDS011;3877;42.562;27.636;2023-04-05T08:04:55;1.40;;;1.30;;
7669;SDS011;3877;42.562;27.636;2023-04-05T08:07:24;1.10;;;1.10;;
7669;SDS011;3877;42.562;27.636;2023-04-05T08:09:51;1.17;;;1.10;;
7669;SDS011;3877;42.562;27.636;2023-04-05T08:12:21;2.13;;;1.50;;
7669;SDS011;3877;42.562;27.636;2023-04-05T08:14:48;1.20;;;1.10;;
7669;SDS011;3877;42.562;27.636;2023-04-05T08:17:15;1.47;;;1.37;;
7669;SDS011;3877;42.562;27.636;2023-04-05T08:19:43;1.00;;;1.00;;
7669;SDS011;3877;42.562;27.636;2023-04-05T08:22:10;1.03;;;1.00;;
7669;SDS011;3877;42.562;27.636;2023-04-05T08:24:38;1.20;;;1.10;;
7669;SDS011;3877;42.562;27.636;2023-04-05T08:27:05;1.87;;;1.43;;
7669;SDS011;3877;42.562;27.636;2023-04-05T08:29:32;2.50;;;2.07;;
7669;SDS011;3877;42.562;27.636;2023-04-05T08:31:58;1.90;;;1.70;;
7669;SDS011;3877;42.562;27.636;2023-04-05T08:34:25;1.90;;;1.60;;
7669;SDS011;3877;42.562;27.636;2023-04-05T08:36:52;1.40;;;1.30;;
7669;SDS011;3877;42.562;27.636;2023-04-05T08:39:19;1.83;;;1.60;;
7669;SDS011;3877;42.562;27.636;2023-04-05T08:41:48;4.53;;;2.33;;
7669;SDS011;3877;42.562;27.636;2023-04-05T08:44:15;4.83;;;1.90;;
7669;SDS011;3877;42.562;27.636;2023-04-05T08:46:44;3.00;;;1.60;;
7669;SDS011;3877;42.562;27.636;2023-04-05T08:49:11;2.13;;;1.60;;
7669;SDS011;3877;42.562;27.636;2023-04-05T08:51:38;1.70;;;1.60;;
7669;SDS011;3877;42.562;27.636;2023-04-05T08:54:05;2.00;;;1.80;;
7669;SDS011;3877;42.562;27.636;2023-04-05T08:56:32;1.83;;;1.73;;
7669;SDS011;3877;42.562;27.636;2023-04-05T08:59:03;6.57;;;4.20;;
7669;SDS011;3877;42.562;27.636;2023-04-05T09:01:30;4.53;;;3.30;;
7669;SDS011;3877;42.562;27.636;2023-04-05T09:03:57;3.70;;;3.13;;
7669;SDS011;3877;42.562;27.636;2023-04-05T09:06:25;3.63;;;2.23;;
7669;SDS011;3877;42.562;27.636;2023-04-05T09:08:53;2.97;;;1.73;;
7669;SDS011;3877;42.562;27.636;2023-04-05T09:11:20;2.37;;;2.00;;
7669;SDS011;3877;42.562;27.636;2023-04-05T09:13:47;2.07;;;1.87;;
7669;SDS011;3877;42.562;27.636;2023-04-05T09:16:16;3.60;;;2.30;;
7669;SDS011;3877;42.562;27.636;2023-04-05T09:18:43;3.50;;;2.60;;
7669;SDS011;3877;42.562;27.636;2023-04-05T09:21:09;2.97;;;2.40;;
7669;SDS011;3877;42.562;27.636;2023-04-05T09:23:36;3.33;;;2.93;;
7669;SDS011;3877;42.562;27.636;2023-04-05T09:26:16;3.00;;;2.70;;
7669;SDS011;3877;42.562;27.636;2023-04-05T09:28:42;2.90;;;2.60;;
7669;SDS011;3877;42.562;27.636;2023-04-05T09:31:09;3.10;;;2.80;;
7669;SDS011;3877;42.562;27.636;2023-04-05T09:33:57;3.77;;;3.33;;
7669;SDS011;3877;42.562;27.636;2023-04-05T09:36:25;3.40;;;3.10;;
7669;SDS011;3877;42.562;27.636;2023-04-05T09:38:52;3.37;;;2.93;;
7669;SDS011;3877;42.562;27.636;2023-04-05T09:41:19;4.93;;;4.07;;
7669;SDS011;3877;42.562;27.636;2023-04-05T09:43:46;3.87;;;3.47;;
7669;SDS011;3877;42.562;27.636;2023-04-05T09:48:59;3.83;;;3.50;;
7669;SDS011;3877;42.562;27.636;2023-04-05T09:51:31;4.00;;;3.60;;
7669;SDS011;3877;42.562;27.636;2023-04-05T09:53:59;3.73;;;3.43;;
7669;SDS011;3877;42.562;27.636;2023-04-05T09:56:27;4.07;;;3.40;;
7669;SDS011;3877;42.562;27.636;2023-04-05T09:58:57;3.57;;;3.20;;
7669;SDS011;3877;42.562;27.636;2023-04-05T10:01:25;3.70;;;3.30;;
7669;SDS011;3877;42.562;27.636;2023-04-05T10:03:53;4.20;;;3.57;;
7669;SDS011;3877;42.562;27.636;2023-04-05T10:06:21;3.93;;;3.53;;
7669;SDS011;3877;42.562;27.636;2023-04-05T10:08:48;3.27;;;2.93;;
7669;SDS011;3877;42.562;27.636;2023-04-05T10:11:16;5.40;;;3.50;;
7669;SDS011;3877;42.562;27.636;2023-04-05T10:13:43;4.03;;;3.17;;
7669;SDS011;3877;42.562;27.636;2023-04-05T10:16:11;3.47;;;2.90;;
7669;SDS011;3877;42.562;27.636;2023-04-05T10:18:40;3.60;;;3.23;;
7669;SDS011;3877;42.562;27.636;2023-04-05T10:21:07;4.10;;;3.60;;
7669;SDS011;3877;42.562;27.636;2023-04-05T10:23:38;3.87;;;3.47;;
7669;SDS011;3877;42.562;27.636;2023-04-05T10:26:09;4.20;;;3.27;;
7669;SDS011;3877;42.562;27.636;2023-04-05T10:28:39;3.73;;;3.30;;
7669;SDS011;3877;42.562;27.636;2023-04-05T10:31:09;3.37;;;2.93;;
7669;SDS011;3877;42.562;27.636;2023-04-05T10:33:38;25.80;;;5.50;;
7669;SDS011;3877;42.562;27.636;2023-04-05T10:36:07;10.00;;;4.03;;
7669;SDS011;3877;42.562;27.636;2023-04-05T10:38:38;3.40;;;3.10;;
7669;SDS011;3877;42.562;27.636;2023-04-05T10:41:09;4.37;;;3.40;;
7669;SDS011;3877;42.562;27.636;2023-04-05T10:43:38;3.47;;;3.17;;
7669;SDS011;3877;42.562;27.636;2023-04-05T10:46:07;3.87;;;3.47;;
7669;SDS011;3877;42.562;27.636;2023-04-05T10:48:36;5.10;;;3.40;;
7669;SDS011;3877;42.562;27.636;2023-04-05T10:51:03;3.97;;;3.57;;
7669;SDS011;3877;42.562;27.636;2023-04-05T10:53:30;3.77;;;3.37;;
7669;SDS011;3877;42.562;27.636;2023-04-05T10:55:57;4.03;;;3.37;;
7669;SDS011;3877;42.562;27.636;2023-04-05T10:58:28;7.73;;;3.60;;
7669;SDS011;3877;42.562;27.636;2023-04-05T11:00:56;5.80;;;3.70;;
7669;SDS011;3877;42.562;27.636;2023-04-05T11:06:21;4.47;;;3.20;;
7669;SDS011;3877;42.562;27.636;2023-04-05T11:08:49;4.20;;;3.17;;
7669;SDS011;3877;42.562;27.636;2023-04-05T11:11:17;3.30;;;2.87;;
7669;SDS011;3877;42.562;27.636;2023-04-05T11:13:49;3.83;;;3.23;;
7669;SDS011;3877;42.562;27.636;2023-04-05T11:16:16;3.90;;;3.30;;
7669;SDS011;3877;42.562;27.636;2023-04-05T11:18:43;4.07;;;3.47;;
7669;SDS011;3877;42.562;27.636;2023-04-05T11:21:11;10.07;;;3.83;;
7669;SDS011;3877;42.562;27.636;2023-04-05T11:26:31;6.00;;;3.40;;
7669;SDS011;3877;42.562;27.636;2023-04-05T11:28:59;5.97;;;3.30;;
7669;SDS011;3877;42.562;27.636;2023-04-05T11:31:26;6.67;;;3.27;;
7669;SDS011;3877;42.562;27.636;2023-04-05T11:33:53;5.27;;;3.50;;
7669;SDS011;3877;42.562;27.636;2023-04-05T11:36:29;4.67;;;3.20;;
7669;SDS011;3877;42.562;27.636;2023-04-05T11:41:43;4.80;;;3.00;;
7669;SDS011;3877;42.562;27.636;2023-04-05T11:44:13;4.60;;;3.00;;
7669;SDS011;3877;42.562;27.636;2023-04-05T11:46:40;6.00;;;3.20;;
7669;SDS011;3877;42.562;27.636;2023-04-05T11:49:07;5.67;;;3.30;;
7669;SDS011;3877;42.562;27.636;2023-04-05T11:51:34;6.07;;;3.80;;
7669;SDS011;3877;42.562;27.636;2023-04-05T11:54:01;6.93;;;3.40;;
7669;SDS011;3877;42.562;27.636;2023-04-05T11:56:28;20.13;;;5.37;;
7669;SDS011;3877;42.562;27.636;2023-04-05T11:58:56;8.13;;;3.33;;
7669;SDS011;3877;42.562;27.636;2023-04-05T12:01:25;6.90;;;4.10;;
7669;SDS011;3877;42.562;27.636;2023-04-05T12:03:52;6.17;;;3.87;;
7669;SDS011;3877;42.562;27.636;2023-04-05T12:06:20;9.47;;;4.37;;
7669;SDS011;3877;42.562;27.636;2023-04-05T12:08:47;6.13;;;3.90;;
7669;SDS011;3877;42.562;27.636;2023-04-05T12:11:15;7.43;;;3.63;;
7669;SDS011;3877;42.562;27.636;2023-04-05T12:13:44;7.53;;;4.10;;
7669;SDS011;3877;42.562;27.636;2023-04-05T12:16:10;7.23;;;4.10;;
7669;SDS011;3877;42.562;27.636;2023-04-05T12:18:38;5.27;;;4.03;;
7669;SDS011;3877;42.562;27.636;2023-04-05T12:21:06;6.20;;;3.83;;
7669;SDS011;3877;42.562;27.636;2023-04-05T12:23:33;9.20;;;4.50;;
7669;SDS011;3877;42.562;27.636;2023-04-05T12:26:00;4.83;;;3.70;;
7669;SDS011;3877;42.562;27.636;2023-04-05T12:31:09;7.53;;;4.00;;
7669;SDS011;3877;42.562;27.636;2023-04-05T12:33:39;5.40;;;3.90;;
7669;SDS011;3877;42.562;27.636;2023-04-05T12:36:08;6.27;;;4.20;;
7669;SDS011;3877;42.562;27.636;2023-04-05T12:38:36;7.30;;;4.00;;
7669;SDS011;3877;42.562;27.636;2023-04-05T12:41:03;7.33;;;4.20;;
7669;SDS011;3877;42.562;27.636;2023-04-05T12:43:36;12.73;;;5.00;;
7669;SDS011;3877;42.562;27.636;2023-04-05T12:46:05;5.73;;;4.53;;
7669;SDS011;3877;42.562;27.636;2023-04-05T12:48:32;5.73;;;4.10;;
7669;SDS011;3877;42.562;27.636;2023-04-05T12:51:02;5.67;;;4.40;;
7669;SDS011;3877;42.562;27.636;2023-04-05T12:53:31;10.37;;;4.83;;
7669;SDS011;3877;42.562;27.636;2023-04-05T12:55:58;13.47;;;4.80;;
7669;SDS011;3877;42.562;27.636;2023-04-05T12:58:31;6.67;;;3.90;;
7669;SDS011;3877;42.562;27.636;2023-04-05T13:00:58;6.77;;;4.73;;
7669;SDS011;3877;42.562;27.636;2023-04-05T13:03:25;10.67;;;4.90;;
7669;SDS011;3877;42.562;27.636;2023-04-05T13:05:52;7.57;;;4.17;;
7669;SDS011;3877;42.562;27.636;2023-04-05T13:08:19;7.13;;;4.00;;
7669;SDS011;3877;42.562;27.636;2023-04-05T13:10:48;7.67;;;4.47;;
7669;SDS011;3877;42.562;27.636;2023-04-05T13:13:15;5.43;;;4.10;;
7669;SDS011;3877;42.562;27.636;2023-04-05T13:15:42;8.30;;;5.03;;
7669;SDS011;3877;42.562;27.636;2023-04-05T13:18:08;7.27;;;4.30;;
7669;SDS011;3877;42.562;27.636;2023-04-05T13:20:38;8.60;;;4.50;;
7669;SDS011;3877;42.562;27.636;2023-04-05T13:23:06;6.23;;;4.00;;
7669;SDS011;3877;42.562;27.636;2023-04-05T13:25:35;6.87;;;4.70;;
7669;SDS011;3877;42.562;27.636;2023-04-05T13:28:03;6.40;;;4.10;;
7669;SDS011;3877;42.562;27.636;2023-04-05T13:30:30;6.73;;;4.17;;
7669;SDS011;3877;42.562;27.636;2023-04-05T13:32:57;6.00;;;4.37;;
7669;SDS011;3877;42.562;27.636;2023-04-05T13:35:24;6.13;;;4.87;;
7669;SDS011;3877;42.562;27.636;2023-04-05T13:37:51;6.83;;;4.73;;
7669;SDS011;3877;42.562;27.636;2023-04-05T13:40:18;9.13;;;4.63;;
7669;SDS011;3877;42.562;27.636;2023-04-05T13:42:44;5.30;;;4.50;;
7669;SDS011;3877;42.562;27.636;2023-04-05T13:45:14;6.17;;;4.30;;
7669;SDS011;3877;42.562;27.636;2023-04-05T13:47:41;5.63;;;4.03;;
7669;SDS011;3877;42.562;27.636;2023-04-05T13:50:07;8.67;;;4.83;;
7669;SDS011;3877;42.562;27.636;2023-04-05T13:52:34;8.50;;;4.60;;
7669;SDS011;3877;42.562;27.636;2023-04-05T13:55:01;5.23;;;4.57;;
7669;SDS011;3877;42.562;27.636;2023-04-05T13:57:28;6.63;;;4.70;;
7669;SDS011;3877;42.562;27.636;2023-04-05T13:59:55;7.13;;;4.37;;
7669;SDS011;3877;42.562;27.636;2023-04-05T14:02:23;6.77;;;4.80;;
7669;SDS011;3877;42.562;27.636;2023-04-05T14:04:51;9.57;;;4.90;;
7669;SDS011;3877;42.562;27.636;2023-04-05T14:07:18;5.57;;;4.80;;
7669;SDS011;3877;42.562;27.636;2023-04-05T14:09:45;8.93;;;4.83;;
7669;SDS011;3877;42.562;27.636;2023-04-05T14:12:12;8.40;;;4.73;;
7669;SDS011;3877;42.562;27.636;2023-04-05T14:14:38;8.17;;;4.80;;
7669;SDS011;3877;42.562;27.636;2023-04-05T14:17:05;6.30;;;5.03;;
7669;SDS011;3877;42.562;27.636;2023-04-05T14:19:34;5.47;;;4.97;;
7669;SDS011;3877;42.562;27.636;2023-04-05T14:22:01;5.57;;;4.80;;
7669;SDS011;3877;42.562;27.636;2023-04-05T14:24:28;5.57;;;4.23;;
7669;SDS011;3877;42.562;27.636;2023-04-05T14:26:54;8.90;;;5.23;;
7669;SDS011;3877;42.562;27.636;2023-04-05T14:29:21;12.83;;;5.17;;
7669;SDS011;3877;42.562;27.636;2023-04-05T14:31:48;8.23;;;5.03;;
7669;SDS011;3877;42.562;27.636;2023-04-05T14:34:15;7.43;;;5.07;;
7669;SDS011;3877;42.562;27.636;2023-04-05T14:36:44;10.30;;;5.40;;
7669;SDS011;3877;42.562;27.636;2023-04-05T14:39:11;6.50;;;4.97;;
7669;SDS011;3877;42.562;27.636;2023-04-05T14:41:38;6.77;;;5.17;;
7669;SDS011;3877;42.562;27.636;2023-04-05T14:44:05;9.03;;;4.87;;
7669;SDS011;3877;42.562;27.636;2023-04-05T14:46:32;9.17;;;5.80;;
7669;SDS011;3877;42.562;27.636;2023-04-05T14:48:58;7.80;;;5.10;;
7669;SDS011;3877;42.562;27.636;2023-04-05T14:51:25;7.27;;;4.87;;
7669;SDS011;3877;42.562;27.636;2023-04-05T14:53:54;5.43;;;4.67;;
7669;SDS011;3877;42.562;27.636;2023-04-05T14:56:21;8.70;;;5.23;;
7669;SDS011;3877;42.562;27.636;2023-04-05T14:58:48;7.53;;;5.43;;
7669;SDS011;3877;42.562;27.636;2023-04-05T15:01:15;6.70;;;5.70;;
7669;SDS011;3877;42.562;27.636;2023-04-05T15:03:41;9.13;;;6.57;;
7669;SDS011;3877;42.562;27.636;2023-04-05T15:06:08;11.43;;;7.57;;
7669;SDS011;3877;42.562;27.636;2023-04-05T15:08:35;19.83;;;6.80;;
7669;SDS011;3877;42.562;27.636;2023-04-05T15:11:04;23.30;;;13.87;;
7669;SDS011;3877;42.562;27.636;2023-04-05T15:13:31;10.03;;;7.30;;
7669;SDS011;3877;42.562;27.636;2023-04-05T15:15:58;9.90;;;6.57;;
7669;SDS011;3877;42.562;27.636;2023-04-05T15:18:25;10.93;;;7.00;;
7669;SDS011;3877;42.562;27.636;2023-04-05T15:20:52;9.03;;;6.37;;
7669;SDS011;3877;42.562;27.636;2023-04-05T15:23:18;9.77;;;6.77;;